Time;durP1;ratioP1;P1;durP2;ratioP2;P2;SDS_P1;SDS_P2;PMS_P1;PMS_P2;Temp;Humidity;BMP_temperature;BMP_pressure;BME280_temperature;BME280_humidity;BME280_pressure;Samples;Min_cycle;Max_cycle;Signal;HPM_P1;HPM_P2
2023/06/26 00:00:49;;;;;;;7.38;1.40;;;17.30;99.90;;;16.90;100.00;101703.28;4168312;28;20056;-76
2023/06/26 00:02:50;;;;;;;4.47;1.35;;;17.30;99.90;;;16.77;100.00;101700.31;4168131;28;20440;-76
2023/06/26 00:04:53;;;;;;;4.38;1.13;;;17.30;99.90;;;16.74;100.00;101704.16;4169485;28;20030;-76
2023/06/26 00:06:54;;;;;;;6.32;1.70;;;17.30;99.90;;;16.70;100.00;101705.50;4168295;28;20500;-76
2023/06/26 00:08:56;;;;;;;5.65;1.20;;;17.20;99.90;;;16.66;100.00;101704.22;4151358;28;20026;-76
2023/06/26 00:10:57;;;;;;;5.85;1.30;;;17.20;99.90;;;16.63;100.00;101703.72;4168312;28;20021;-76
2023/06/26 00:12:58;;;;;;;4.40;1.10;;;17.20;99.90;;;16.49;100.00;101687.41;4168212;28;20017;-76
2023/06/26 00:14:59;;;;;;;4.50;1.77;;;17.10;99.90;;;16.54;100.00;101711.75;4169247;28;20041;-76
2023/06/26 00:17:00;;;;;;;5.50;1.45;;;17.10;99.90;;;16.54;100.00;101718.91;4169178;28;20036;-76
2023/06/26 00:19:00;;;;;;;4.15;1.40;;;17.00;99.90;;;16.51;100.00;101721.88;4177296;28;20099;-76
2023/06/26 00:21:01;;;;;;;8.35;1.45;;;17.00;99.90;;;16.50;100.00;101723.69;4185733;28;20029;-76
2023/06/26 00:23:07;;;;;;;6.95;2.40;;;17.00;99.90;;;16.49;100.00;101727.34;4185511;28;20025;-76
2023/06/26 00:25:08;;;;;;;7.78;1.95;;;16.90;99.90;;;16.38;100.00;101725.06;4185189;28;20025;-76
2023/06/26 00:27:09;;;;;;;7.28;1.17;;;16.90;99.90;;;16.38;100.00;101727.72;4167503;28;20116;-76
2023/06/26 00:29:09;;;;;;;6.47;1.38;;;16.90;99.90;;;16.33;100.00;101729.22;4185237;28;20143;-76
2023/06/26 00:31:10;;;;;;;4.70;1.63;;;16.80;99.90;;;16.18;100.00;101710.47;4167983;28;20025;-76
2023/06/26 00:33:11;;;;;;;6.00;2.42;;;16.80;99.90;;;16.26;100.00;101729.06;4185418;28;20037;-76
2023/06/26 00:35:12;;;;;;;6.53;1.55;;;16.80;99.90;;;16.16;100.00;101728.41;4185633;28;20021;-76
2023/06/26 00:37:13;;;;;;;10.40;1.75;;;16.70;99.90;;;16.20;100.00;101739.56;4185573;28;20066;-76
2023/06/26 00:39:15;;;;;;;6.50;1.42;;;16.70;99.90;;;16.15;100.00;101740.06;4167536;28;20057;-76
2023/06/26 00:41:16;;;;;;;5.15;1.10;;;16.70;99.90;;;16.14;100.00;101741.06;4185313;28;20025;-76
2023/06/26 00:43:17;;;;;;;8.40;2.45;;;16.60;99.90;;;16.11;100.00;101748.53;4185424;28;20476;-76
2023/06/26 00:45:18;;;;;;;5.82;1.92;;;16.60;99.90;;;16.09;100.00;101755.88;4185513;28;20025;-76
2023/06/26 00:47:19;;;;;;;8.40;1.42;;;16.60;99.90;;;16.05;100.00;101742.06;4167911;28;20168;-76
2023/06/26 00:49:20;;;;;;;5.28;2.03;;;16.60;99.90;;;15.98;100.00;101743.72;4151105;28;20430;-76
2023/06/26 00:51:21;;;;;;;6.93;1.73;;;16.50;99.90;;;15.96;100.00;101751.88;4167807;28;20029;-76
2023/06/26 00:53:22;;;;;;;6.65;1.67;;;16.50;99.90;;;15.75;100.00;101726.75;4167608;28;20029;-76
2023/06/26 00:55:23;;;;;;;5.72;1.50;;;16.50;99.90;;;15.87;100.00;101749.38;4184247;28;20079;-76
2023/06/26 00:57:24;;;;;;;4.43;1.33;;;16.40;99.90;;;15.81;100.00;101744.72;4185121;28;20021;-76
2023/06/26 00:59:25;;;;;;;7.93;1.85;;;16.40;99.90;;;15.76;100.00;101747.06;4185512;28;20499;-76
2023/06/26 01:01:26;;;;;;;3.97;1.80;;;16.30;99.90;;;15.72;100.00;101751.88;4151099;28;20046;-76
2023/06/26 01:03:27;;;;;;;4.85;1.60;;;16.30;99.90;;;15.66;100.00;101751.69;4184988;28;20033;-76
2023/06/26 01:05:29;;;;;;;8.70;2.03;;;16.20;99.90;;;15.66;100.00;101744.56;4184106;28;20021;-76
2023/06/26 01:07:32;;;;;;;6.32;1.42;;;16.20;99.90;;;15.66;100.00;101754.34;4151124;28;20438;-76
2023/06/26 01:09:34;;;;;;;6.28;1.92;;;16.20;99.90;;;15.61;100.00;101752.19;4184982;28;20044;-76
2023/06/26 01:11:35;;;;;;;9.32;2.20;;;16.10;99.90;;;15.53;100.00;101746.84;4167495;28;20025;-76
2023/06/26 01:13:36;;;;;;;6.60;1.88;;;16.10;99.90;;;15.56;100.00;101751.03;4167591;28;20033;-76
2023/06/26 01:15:37;;;;;;;3.85;1.40;;;16.10;99.90;;;15.52;100.00;101755.00;4167276;28;20021;-76
2023/06/26 01:17:40;;;;;;;8.27;2.03;;;16.10;99.90;;;15.48;100.00;101754.50;4185248;28;20024;-76
2023/06/26 01:19:42;;;;;;;5.50;1.58;;;16.00;99.90;;;15.43;100.00;101762.94;4167477;28;20045;-76
2023/06/26 01:21:46;;;;;;;4.45;1.60;;;16.00;99.90;;;15.39;100.00;101766.06;4167449;28;20026;-76
2023/06/26 01:24:09;;;;;;;;;;;15.90;99.90;;;15.30;100.00;101767.03;4167675;28;20052;-76
2023/06/26 01:26:19;;;;;;;6.22;1.80;;;15.90;99.90;;;15.29;100.00;101758.22;4151934;28;19929;-76
2023/06/26 01:28:21;;;;;;;7.50;1.65;;;15.80;99.90;;;15.30;100.00;101767.88;4167669;28;20029;-76
2023/06/26 01:30:23;;;;;;;3.95;1.52;;;15.80;99.90;;;15.26;100.00;101774.50;4167207;28;20471;-76
2023/06/26 01:32:24;;;;;;;5.15;1.88;;;15.80;99.90;;;15.26;100.00;101771.84;4167446;28;20401;-76
2023/06/26 01:34:26;;;;;;;4.47;1.60;;;15.80;99.90;;;15.25;100.00;101777.34;4167373;28;20025;-76
2023/06/26 01:36:27;;;;;;;7.18;1.63;;;15.80;99.90;;;15.19;100.00;101775.31;4168377;28;20041;-76
2023/06/26 01:38:28;;;;;;;6.47;2.13;;;15.70;99.90;;;15.18;100.00;101774.47;4167059;28;20528;-76
2023/06/26 01:40:29;;;;;;;4.55;2.03;;;15.70;99.90;;;15.15;100.00;101782.78;4170757;28;20064;-76
2023/06/26 01:42:30;;;;;;;5.85;1.70;;;15.70;99.90;;;15.11;100.00;101770.81;4171587;28;20037;-76
2023/06/26 01:44:42;;;;;;;7.43;2.30;;;15.70;99.90;;;15.09;100.00;101767.47;4170602;28;20473;-76
2023/06/26 01:47:10;;;;;;;8.00;2.47;;;15.60;99.90;;;15.10;100.00;101776.28;4170597;28;20044;-76
2023/06/26 01:49:46;;;;;;;4.88;1.67;;;15.60;99.90;;;15.02;100.00;101771.78;4167919;28;20035;-76
2023/06/26 01:52:02;;;;;;;8.15;2.75;;;15.60;99.90;;;14.99;100.00;101769.44;4170586;28;20071;-76
2023/06/26 01:54:09;;;;;;;7.28;1.73;;;15.50;99.90;;;15.00;100.00;101772.91;4170136;28;20512;-76
2023/06/26 01:56:16;;;;;;;4.95;1.73;;;15.50;99.90;;;14.87;100.00;101763.56;4170495;28;20056;-76
2023/06/26 01:58:20;;;;;;;7.40;2.05;;;15.50;99.90;;;14.90;100.00;101779.16;4171626;28;20029;-76
2023/06/26 02:00:21;;;;;;;6.00;1.90;;;15.50;99.90;;;14.90;100.00;101784.47;4170284;28;20037;-76
2023/06/26 02:02:24;;;;;;;2.95;1.52;;;15.40;99.90;;;14.79;100.00;101775.97;4171240;28;20029;-76
2023/06/26 02:04:25;;;;;;;4.37;1.80;;;15.40;99.90;;;14.83;100.00;101786.13;4157257;28;20404;-76
2023/06/26 02:06:26;;;;;;;7.35;2.10;;;15.40;99.90;;;14.82;100.00;101783.63;4171344;28;20025;-75
2023/06/26 02:08:27;;;;;;;7.53;2.33;;;15.40;99.90;;;14.82;100.00;101791.59;4170927;28;20017;-76
2023/06/26 02:10:28;;;;;;;9.23;3.15;;;15.30;99.90;;;14.83;100.00;101779.97;4171296;28;20079;-76
2023/06/26 02:12:29;;;;;;;8.82;2.53;;;15.30;99.90;;;14.77;100.00;101785.91;4171236;28;20030;-76
2023/06/26 02:14:30;;;;;;;7.05;2.70;;;15.30;99.90;;;14.74;100.00;101792.38;4169986;28;20025;-76
2023/06/26 02:16:30;;;;;;;8.13;2.45;;;15.30;99.90;;;14.70;100.00;101784.88;4170088;28;20069;-76
2023/06/26 02:18:31;;;;;;;6.28;1.90;;;15.30;99.90;;;14.59;100.00;101767.41;4169641;28;20064;-76
2023/06/26 02:20:33;;;;;;;4.82;1.90;;;15.20;99.90;;;14.69;100.00;101780.56;4171007;28;20036;-76
2023/06/26 02:22:34;;;;;;;5.88;2.38;;;15.20;99.90;;;14.68;100.00;101777.06;4171058;28;20021;-76
2023/06/26 02:24:35;;;;;;;4.30;1.85;;;15.20;99.90;;;14.62;100.00;101779.53;4170861;28;20029;-76
2023/06/26 02:26:35;;;;;;;6.10;2.25;;;15.20;99.90;;;14.62;100.00;101777.72;4170021;28;20048;-76
2023/06/26 02:28:36;;;;;;;7.03;2.42;;;15.20;99.90;;;14.62;100.00;101779.53;4169600;28;20029;-76
2023/06/26 02:30:37;;;;;;;8.88;2.67;;;15.20;99.90;;;14.57;100.00;101776.50;4170079;28;20077;-76
2023/06/26 02:32:38;;;;;;;5.75;2.50;;;15.10;99.90;;;14.58;100.00;101786.13;4169807;28;20025;-76
2023/06/26 02:34:39;;;;;;;7.32;2.53;;;15.10;99.90;;;14.54;100.00;101774.16;4169890;28;20033;-76
2023/06/26 02:36:40;;;;;;;10.10;2.25;;;15.10;99.90;;;14.49;100.00;101784.41;4169500;28;20033;-76
2023/06/26 02:38:41;;;;;;;5.25;2.17;;;15.10;99.90;;;14.47;100.00;101779.28;4169484;28;20029;-76
2023/06/26 02:40:42;;;;;;;6.47;2.95;;;15.00;99.90;;;14.44;100.00;101784.06;4169650;28;20524;-76
2023/06/26 02:42:43;;;;;;;6.40;2.70;;;15.00;99.90;;;14.40;100.00;101770.25;4169565;28;20038;-76
2023/06/26 02:44:44;;;;;;;9.57;2.28;;;15.00;99.90;;;14.42;100.00;101786.03;4169576;28;20044;-76
2023/06/26 02:46:45;;;;;;;6.80;2.53;;;15.00;99.90;;;14.37;100.00;101783.84;4169815;28;20040;-76
2023/06/26 02:48:45;;;;;;;6.93;2.08;;;15.00;99.90;;;14.24;100.00;101770.97;4186074;28;20055;-76
2023/06/26 02:50:46;;;;;;;8.02;2.53;;;15.00;99.90;;;14.33;100.00;101783.34;4168809;28;20018;-76
2023/06/26 02:52:52;;;;;;;7.45;2.42;;;14.90;99.90;;;14.44;100.00;101790.19;4169355;28;20104;-76
2023/06/26 02:54:53;;;;;;;8.40;2.45;;;15.00;99.90;;;14.35;100.00;101785.81;4170486;28;20459;-76
2023/06/26 02:56:53;;;;;;;5.70;2.38;;;14.90;99.90;;;14.26;100.00;101774.28;4169329;28;20030;-76
2023/06/26 02:58:57;;;;;;;6.68;2.15;;;14.90;99.90;;;14.34;100.00;101789.44;4169430;28;20429;-76
2023/06/26 03:00:58;;;;;;;11.68;2.72;;;14.90;99.90;;;14.37;100.00;101797.94;4169421;28;20026;-76
2023/06/26 03:02:59;;;;;;;9.95;2.63;;;14.90;99.90;;;14.34;100.00;101798.25;4170375;28;20036;-76
2023/06/26 03:05:00;;;;;;;10.10;3.33;;;14.90;99.90;;;14.33;100.00;101798.41;4170401;28;20049;-76
2023/06/26 03:07:01;;;;;;;8.95;3.05;;;14.90;99.90;;;14.34;100.00;101795.59;4169225;28;20029;-76
2023/06/26 03:09:02;;;;;;;8.57;2.47;;;14.90;99.90;;;14.29;100.00;101797.88;4170058;28;20033;-76
2023/06/26 03:11:03;;;;;;;13.13;2.60;;;14.90;99.90;;;14.27;100.00;101804.31;4169253;28;20030;-76
2023/06/26 03:13:04;;;;;;;7.43;2.22;;;14.90;99.90;;;14.27;100.00;101802.50;4170314;28;20397;-76
2023/06/26 03:15:06;;;;;;;6.63;2.08;;;14.80;99.90;;;14.25;100.00;101806.25;4170229;28;20025;-75
2023/06/26 03:17:07;;;;;;;7.03;2.33;;;14.80;99.90;;;14.24;100.00;101805.47;4170068;28;20031;-76
2023/06/26 03:19:08;;;;;;;9.68;2.38;;;14.80;99.90;;;14.22;100.00;101802.09;4177256;28;20045;-76
2023/06/26 03:21:09;;;;;;;8.25;2.28;;;14.80;99.90;;;14.21;100.00;101804.94;4169154;28;20026;-76
2023/06/26 03:23:10;;;;;;;9.20;2.47;;;14.80;99.90;;;14.18;100.00;101797.28;4168423;28;20021;-76
2023/06/26 03:25:10;;;;;;;8.85;3.30;;;14.80;99.90;;;14.20;100.00;101803.25;4168627;28;20059;-75
2023/06/26 03:27:11;;;;;;;7.45;2.58;;;14.80;99.90;;;14.21;100.00;101805.75;4186533;28;20025;-76
2023/06/26 03:29:12;;;;;;;11.82;2.58;;;14.70;99.90;;;14.20;100.00;101805.91;4168922;28;20022;-76
2023/06/26 03:31:13;;;;;;;4.45;2.58;;;14.80;99.90;;;14.11;100.00;101788.25;4168855;28;20025;-76
2023/06/26 03:33:14;;;;;;;6.25;2.40;;;14.80;99.90;;;14.21;100.00;101805.75;4186366;28;20032;-76
2023/06/26 03:35:15;;;;;;;7.63;2.60;;;14.70;99.90;;;14.12;100.00;101798.72;4186399;28;20033;-76
2023/06/26 03:37:16;;;;;;;9.90;3.35;;;14.70;99.90;;;14.22;100.00;101815.38;4168659;28;20079;-75
2023/06/26 03:39:17;;;;;;;4.55;2.00;;;14.70;99.90;;;14.23;100.00;101817.06;4186287;28;20488;-76
2023/06/26 03:41:18;;;;;;;11.35;3.33;;;14.70;99.90;;;14.17;100.00;101815.00;4185008;28;20049;-76
2023/06/26 03:43:18;;;;;;;9.60;2.42;;;14.70;99.90;;;14.12;100.00;101809.34;4152090;28;20037;-76
2023/06/26 03:45:19;;;;;;;10.18;2.30;;;14.70;99.90;;;14.12;100.00;101819.94;4186551;28;20024;-76
2023/06/26 03:47:20;;;;;;;7.70;2.38;;;14.70;99.90;;;14.06;100.00;101801.16;4186205;28;20032;-76
2023/06/26 03:49:21;;;;;;;14.45;3.30;;;14.70;99.90;;;14.05;100.00;101807.44;4186105;28;20036;-76
2023/06/26 03:51:22;;;;;;;8.15;2.20;;;14.70;99.90;;;14.08;100.00;101818.56;4186007;28;20025;-75
2023/06/26 03:53:23;;;;;;;9.38;2.97;;;14.70;99.90;;;14.07;100.00;101822.22;4151619;28;20100;-76
2023/06/26 03:55:24;;;;;;;7.53;2.33;;;14.60;99.90;;;14.05;100.00;101821.53;4185803;28;20025;-75
2023/06/26 03:57:25;;;;;;;7.80;2.85;;;14.60;99.90;;;14.09;100.00;101828.22;4168751;28;20024;-76
2023/06/26 03:59:26;;;;;;;11.32;2.45;;;14.60;99.90;;;14.07;100.00;101826.69;4185889;28;20037;-76
2023/06/26 04:01:27;;;;;;;9.85;2.95;;;14.60;99.90;;;14.04;100.00;101827.81;4186011;28;20100;-76
2023/06/26 04:03:29;;;;;;;5.95;2.28;;;14.60;99.90;;;13.99;100.00;101819.50;4184055;28;20115;-75
2023/06/26 04:05:30;;;;;;;5.07;2.30;;;14.60;99.90;;;14.05;100.00;101821.53;4185912;28;20021;-76
2023/06/26 04:07:31;;;;;;;8.52;2.53;;;14.60;99.90;;;13.99;100.00;101824.78;4185932;28;20082;-76
2023/06/26 04:09:32;;;;;;;6.28;2.35;;;14.60;99.90;;;13.98;100.00;101822.31;4167942;28;20112;-76
2023/06/26 04:11:33;;;;;;;8.25;2.80;;;14.60;99.90;;;13.99;100.00;101830.09;4168025;28;20025;-75
2023/06/26 04:13:33;;;;;;;8.93;2.10;;;14.50;99.90;;;13.98;100.00;101835.56;4167990;28;20025;-76
2023/06/26 04:15:34;;;;;;;4.57;1.98;;;14.50;99.90;;;13.95;100.00;101828.72;4167798;28;20444;-76
2023/06/26 04:17:35;;;;;;;5.53;1.83;;;14.50;99.90;;;13.91;100.00;101830.03;4168038;28;20026;-76
2023/06/26 04:19:36;;;;;;;9.80;2.85;;;14.50;99.90;;;13.92;100.00;101833.53;4167897;28;20049;-76
2023/06/26 04:21:37;;;;;;;6.88;2.78;;;14.50;99.90;;;13.93;100.00;101838.66;4168092;28;20025;-76
2023/06/26 04:23:40;;;;;;;4.75;2.38;;;14.50;99.90;;;13.93;100.00;101832.53;4168773;28;20489;-76
2023/06/26 04:25:41;;;;;;;7.07;2.20;;;14.50;99.90;;;13.92;100.00;101831.69;4176229;28;20116;-76
2023/06/26 04:27:41;;;;;;;5.18;2.17;;;14.40;99.90;;;13.91;100.00;101823.88;4169448;28;20028;-75
2023/06/26 04:29:42;;;;;;;9.23;2.60;;;14.40;99.90;;;13.91;100.00;101829.19;4169212;28;20021;-76
2023/06/26 04:31:46;;;;;;;3.75;1.88;;;14.50;99.90;;;13.97;100.00;101839.19;4167759;28;20036;-76
2023/06/26 04:33:50;;;;;;;5.13;2.33;;;14.50;99.90;;;14.01;100.00;101840.56;4169068;28;20029;-76
2023/06/26 04:35:52;;;;;;;5.00;2.25;;;14.50;99.90;;;14.03;100.00;101839.44;4167857;28;20056;-76
2023/06/26 04:37:53;;;;;;;9.45;2.78;;;14.50;99.90;;;14.00;100.00;101826.47;4169131;28;20037;-75
2023/06/26 04:39:54;;;;;;;9.30;2.80;;;14.60;99.90;;;14.06;100.00;101833.81;4168788;28;20021;-76
2023/06/26 04:41:55;;;;;;;7.25;2.88;;;14.60;99.90;;;14.08;100.00;101831.84;4169014;28;20025;-76
2023/06/26 04:43:55;;;;;;;5.75;2.63;;;14.60;99.90;;;14.05;100.00;101829.50;4150967;28;20504;-76
2023/06/26 04:45:56;;;;;;;7.82;1.95;;;14.60;99.90;;;14.08;100.00;101836.31;4167499;28;20048;-76
2023/06/26 04:47:57;;;;;;;8.13;2.45;;;14.60;99.90;;;14.14;100.00;101841.00;4168730;28;20045;-76
2023/06/26 04:49:58;;;;;;;6.18;2.22;;;14.60;99.90;;;14.16;100.00;101841.69;4167775;28;20013;-76
2023/06/26 04:52:02;;;;;;;10.38;2.75;;;14.60;99.90;;;14.22;100.00;101844.56;4167690;28;20087;-76
2023/06/26 04:54:03;;;;;;;8.45;2.38;;;14.70;99.90;;;14.24;100.00;101842.63;4168495;28;20040;-76
2023/06/26 04:56:04;;;;;;;9.18;2.90;;;14.70;99.90;;;14.28;100.00;101854.56;4167419;28;20033;-76
2023/06/26 04:58:05;;;;;;;4.55;1.75;;;14.70;99.90;;;14.30;100.00;101847.31;4167537;28;20077;-75
2023/06/26 05:00:10;;;;;;;5.53;2.47;;;14.70;99.90;;;14.29;100.00;101850.09;4175317;28;20100;-76
2023/06/26 05:02:12;;;;;;;9.60;2.78;;;14.80;99.90;;;14.35;100.00;101860.97;4167716;28;20108;-75
2023/06/26 05:04:15;;;;;;;5.32;2.10;;;14.80;99.90;;;14.29;100.00;101834.19;4168450;28;20105;-75
2023/06/26 05:06:16;;;;;;;7.13;2.80;;;14.80;99.90;;;14.45;100.00;101852.09;4168794;28;20392;-75
2023/06/26 05:08:23;;;;;;;6.20;2.42;;;14.90;99.90;;;14.50;100.00;101855.94;4168679;28;20025;-76
2023/06/26 05:10:24;;;;;;;7.63;1.98;;;14.90;99.90;;;14.55;100.00;101860.78;4168837;28;20022;-76
2023/06/26 05:12:25;;;;;;;5.95;2.22;;;14.90;99.90;;;14.58;100.00;101857.81;4168486;28;20044;-76
2023/06/26 05:14:25;;;;;;;5.82;2.47;;;14.90;99.90;;;14.58;100.00;101861.31;4153916;28;20033;-76
2023/06/26 05:16:26;;;;;;;9.15;2.40;;;15.00;99.90;;;14.50;100.00;101836.53;4171907;28;20025;-76
2023/06/26 05:18:27;;;;;;;10.70;2.42;;;15.10;99.90;;;14.70;100.00;101870.69;4172759;28;20025;-76
2023/06/26 05:20:28;;;;;;;6.40;2.63;;;15.10;99.90;;;14.76;100.00;101871.91;4172626;28;20416;-76
2023/06/26 05:22:29;;;;;;;5.57;2.30;;;15.20;99.90;;;14.77;100.00;101870.91;4173910;28;20026;-76
2023/06/26 05:24:31;;;;;;;4.75;2.17;;;15.20;99.90;;;14.83;100.00;101871.13;4172708;28;20061;-76
2023/06/26 05:26:32;;;;;;;10.48;3.40;;;15.20;99.90;;;14.84;100.00;101864.00;4172922;28;20026;-76
2023/06/26 05:28:35;;;;;;;6.07;2.10;;;15.30;99.90;;;14.92;100.00;101875.50;4172802;28;20033;-76
2023/06/26 05:30:37;;;;;;;9.30;2.47;;;15.30;99.90;;;14.99;100.00;101875.72;4174342;28;20018;-76
2023/06/26 05:32:40;;;;;;;7.47;3.38;;;15.40;99.90;;;15.00;100.00;101874.72;4172937;28;20037;-76
2023/06/26 05:34:41;;;;;;;8.13;2.42;;;15.40;99.90;;;15.01;100.00;101868.41;4172766;28;20025;-76
2023/06/26 05:36:43;;;;;;;8.55;2.40;;;15.50;99.90;;;15.08;100.00;101880.09;4172629;28;21229;-76
2023/06/26 05:38:44;;;;;;;8.48;3.08;;;15.50;99.90;;;15.21;100.00;101888.47;4172591;28;20032;-76
2023/06/26 05:40:46;;;;;;;11.93;2.47;;;15.60;99.90;;;15.25;100.00;101886.31;4174042;28;20061;-76
2023/06/26 05:42:47;;;;;;;4.53;1.83;;;15.60;99.90;;;15.19;100.00;101869.19;4172550;28;20026;-76
2023/06/26 05:44:48;;;;;;;6.85;1.95;;;15.70;99.90;;;15.33;100.00;101881.88;4172667;28;20026;-76
2023/06/26 05:46:49;;;;;;;11.45;2.65;;;15.70;99.90;;;15.36;100.00;101888.69;4173946;28;20501;-76
2023/06/26 05:48:50;;;;;;;8.52;2.30;;;15.80;99.90;;;15.44;100.00;101889.56;4173851;28;20436;-76
2023/06/26 05:50:51;;;;;;;8.00;2.72;;;15.80;99.90;;;15.44;100.00;101886.09;4173854;28;20026;-76
2023/06/26 05:52:53;;;;;;;9.00;2.45;;;15.90;99.90;;;15.56;100.00;101895.47;4172488;28;20123;-76
2023/06/26 05:54:54;;;;;;;5.78;2.20;;;15.90;99.90;;;15.59;100.00;101892.47;4173544;28;20037;-76
2023/06/26 05:57:00;;;;;;;6.55;1.92;;;16.00;99.90;;;15.65;100.00;101893.69;4173784;28;20030;-76
2023/06/26 05:59:03;;;;;;;10.32;2.95;;;16.00;99.90;;;15.63;100.00;101896.50;4172617;28;20031;-76
2023/06/26 06:01:04;;;;;;;8.27;2.22;;;16.10;99.90;;;15.67;100.00;101894.34;4173787;28;20040;-76
2023/06/26 06:03:05;;;;;;;8.05;2.97;;;16.10;99.90;;;15.68;100.00;101902.16;4173220;28;20057;-76
2023/06/26 06:05:06;;;;;;;6.88;2.30;;;16.10;99.90;;;15.74;100.00;101901.50;4172435;28;20062;-76
2023/06/26 06:07:07;;;;;;;5.55;2.25;;;16.10;99.90;;;15.77;100.00;101898.53;4205790;28;20016;-76
2023/06/26 06:09:08;;;;;;;9.60;2.55;;;16.20;99.90;;;15.76;100.00;101893.38;4172189;28;20528;-76
2023/06/26 06:11:09;;;;;;;9.82;2.50;;;16.20;99.90;;;15.92;100.00;101906.72;4172740;28;20024;-76
2023/06/26 06:13:10;;;;;;;6.38;2.15;;;16.30;99.90;;;16.00;100.00;101920.06;4173651;28;20481;-76
2023/06/26 06:15:11;;;;;;;6.35;2.47;;;16.40;99.90;;;16.03;100.00;101909.94;4172292;28;20022;-76
2023/06/26 06:17:12;;;;;;;9.38;2.92;;;16.40;99.90;;;16.05;100.00;101912.41;4155839;28;20033;-76
2023/06/26 06:19:13;;;;;;;6.30;2.10;;;16.50;99.90;;;16.17;100.00;101921.75;4180007;28;20048;-76
2023/06/26 06:21:14;;;;;;;9.38;2.33;;;16.50;99.90;;;16.23;100.00;101918.44;4172471;28;20595;-76
2023/06/26 06:23:15;;;;;;;7.88;2.45;;;16.60;99.90;;;16.32;100.00;101914.78;4173196;28;20033;-76
2023/06/26 06:25:16;;;;;;;7.10;2.15;;;16.70;99.90;;;16.39;100.00;101909.66;4154679;28;20025;-76
2023/06/26 06:27:17;;;;;;;7.75;1.98;;;16.70;99.90;;;16.41;100.00;101912.97;4166871;28;20088;-76
2023/06/26 06:29:19;;;;;;;9.75;2.58;;;16.80;99.90;;;16.44;100.00;101901.97;4169840;28;20087;-76
2023/06/26 06:31:20;;;;;;;8.60;2.47;;;16.90;99.90;;;16.50;100.00;101906.66;4166118;28;20045;-76
2023/06/26 06:33:21;;;;;;;5.22;2.80;;;16.90;99.90;;;16.65;100.00;101921.00;4153125;28;20042;-76
2023/06/26 06:35:22;;;;;;;8.27;2.03;;;17.00;99.90;;;16.70;100.00;101915.16;4191676;28;20423;-76
2023/06/26 06:37:23;;;;;;;8.23;2.40;;;17.00;99.90;;;16.77;100.00;101905.50;4170981;28;20029;-76
2023/06/26 06:39:23;;;;;;;5.13;1.88;;;17.10;99.90;;;16.83;100.00;101918.16;4169493;28;20148;-76
2023/06/26 06:41:24;;;;;;;10.68;2.97;;;17.20;99.90;;;16.81;100.00;101910.34;4168914;28;20076;-76
2023/06/26 06:43:25;;;;;;;7.25;2.75;;;17.20;99.90;;;16.87;100.00;101924.81;4171134;28;20059;-76
2023/06/26 06:45:26;;;;;;;6.70;2.47;;;17.30;99.90;;;16.87;100.00;101920.34;4170687;28;20033;-76
2023/06/26 06:47:27;;;;;;;7.35;2.30;;;17.30;99.90;;;16.90;100.00;101922.66;4202808;28;20530;-76
2023/06/26 06:49:27;;;;;;;12.77;2.22;;;17.30;99.90;;;16.98;100.00;101916.47;4170563;28;20033;-76
2023/06/26 06:51:28;;;;;;;14.50;2.85;;;17.40;99.90;;;17.04;100.00;101915.81;4170835;28;20021;-76
2023/06/26 06:53:30;;;;;;;7.43;2.88;;;17.50;99.90;;;17.16;100.00;101925.09;4168888;28;20084;-76
2023/06/26 06:55:31;;;;;;;9.85;2.40;;;17.50;99.90;;;17.26;100.00;101930.25;4169285;28;20056;-76
2023/06/26 06:57:37;;;;;;;8.85;2.45;;;17.60;99.90;;;17.32;100.00;101925.06;4170403;28;20026;-76
2023/06/26 06:59:38;;;;;;;9.98;3.03;;;17.60;99.90;;;17.52;100.00;101931.69;4169040;28;20057;-76
2023/06/26 07:01:40;;;;;;;9.02;2.25;;;17.80;99.90;;;17.81;100.00;101940.91;4162064;28;20030;-76
2023/06/26 07:03:40;;;;;;;15.52;2.30;;;17.90;99.90;;;17.84;100.00;101936.06;4170387;28;20114;-76
2023/06/26 07:05:42;;;;;;;8.40;1.77;;;18.00;99.90;;;17.91;100.00;101946.88;4170303;28;20044;-76
2023/06/26 07:07:43;;;;;;;7.75;2.00;;;18.00;99.90;;;17.85;100.00;101927.06;4170808;28;20037;-76
2023/06/26 07:09:44;;;;;;;7.10;2.05;;;18.10;99.90;;;17.96;100.00;101941.84;4169025;28;20083;-76
2023/06/26 07:11:46;;;;;;;8.18;2.00;;;18.20;99.90;;;18.04;100.00;101947.97;4163040;28;20108;-76
2023/06/26 07:13:46;;;;;;;13.90;2.83;;;18.30;99.90;;;18.12;100.00;101950.63;4170241;28;20033;-76
2023/06/26 07:15:47;;;;;;;6.22;2.05;;;18.30;99.90;;;18.20;100.00;101957.72;4170245;28;20404;-76
2023/06/26 07:17:48;;;;;;;5.88;1.92;;;18.40;99.90;;;18.22;100.00;101951.19;4170515;28;20096;-76
2023/06/26 07:19:50;;;;;;;8.10;2.05;;;18.50;99.90;;;18.19;100.00;101950.72;4182737;28;20052;-76
2023/06/26 07:21:50;;;;;;;10.38;3.13;;;18.50;99.90;;;18.22;100.00;101961.03;4168888;28;20048;-76
2023/06/26 07:23:51;;;;;;;7.18;2.00;;;18.60;99.90;;;18.17;100.00;101944.72;4186513;28;20021;-76
2023/06/26 07:25:52;;;;;;;7.07;2.33;;;18.60;99.90;;;18.18;100.00;101965.94;4186548;28;20029;-76
2023/06/26 07:27:53;;;;;;;7.90;2.17;;;18.60;99.90;;;18.25;100.00;101971.38;4168877;28;20528;-76
2023/06/26 07:29:54;;;;;;;7.47;2.95;;;18.60;99.90;;;18.18;100.00;101952.59;4168847;28;20397;-76
2023/06/26 07:31:55;;;;;;;7.90;2.38;;;18.70;99.90;;;18.30;100.00;101953.00;4186508;28;20017;-76
2023/06/26 07:33:55;;;;;;;6.78;2.10;;;18.70;99.90;;;18.44;100.00;101962.91;4185207;28;20028;-76
2023/06/26 07:35:56;;;;;;;6.93;1.98;;;18.80;99.90;;;18.55;100.00;101959.84;4186594;28;20021;-76
2023/06/26 07:37:57;;;;;;;10.32;2.20;;;18.90;99.90;;;18.64;100.00;101961.47;4168379;28;20071;-76
2023/06/26 07:39:58;;;;;;;7.55;2.47;;;19.00;99.90;;;18.57;100.00;101965.88;4186298;28;20025;-76
2023/06/26 07:41:59;;;;;;;4.97;1.48;;;19.00;99.90;;;18.69;100.00;101964.44;4168663;28;20033;-76
2023/06/26 07:44:00;;;;;;;8.02;2.38;;;19.10;99.90;;;18.70;100.00;101955.41;4186489;28;20027;-76
2023/06/26 07:46:01;;;;;;;8.15;2.25;;;19.10;99.90;;;18.88;100.00;101956.91;4168455;28;20534;-76
2023/06/26 07:48:02;;;;;;;6.40;2.35;;;19.20;99.90;;;18.91;100.00;101956.56;4168454;28;20484;-76
2023/06/26 07:50:03;;;;;;;6.28;2.00;;;19.30;99.90;;;19.10;100.00;101961.41;4186215;28;20086;-76
2023/06/26 07:52:05;;;;;;;8.90;1.85;;;19.40;99.90;;;19.18;99.91;101964.81;4168353;28;20117;-76
2023/06/26 07:54:06;;;;;;;7.25;1.83;;;19.50;99.90;;;19.14;98.50;101942.16;4185979;28;20028;-76
2023/06/26 07:56:07;;;;;;;7.07;2.45;;;19.60;99.90;;;19.22;96.03;101955.44;4186146;28;20029;-76
2023/06/26 07:58:09;;;;;;;10.40;2.63;;;19.70;99.90;;;19.15;93.96;101962.50;4168611;28;20113;-76
2023/06/26 08:00:11;;;;;;;6.75;1.88;;;19.60;99.90;;;19.22;91.11;101981.34;4186056;28;20490;-76
2023/06/26 08:02:12;;;;;;;6.80;2.08;;;19.60;99.90;;;19.17;90.69;101978.41;4186039;28;20029;-76
2023/06/26 08:04:13;;;;;;;7.25;2.33;;;19.60;99.90;;;19.14;89.91;101957.34;4168204;28;20396;-76
2023/06/26 08:06:14;;;;;;;7.45;1.95;;;19.60;99.90;;;19.15;89.08;101975.06;4185735;28;20036;-76
2023/06/26 08:08:15;;;;;;;5.95;1.52;;;19.60;99.90;;;19.21;89.97;101980.50;4185319;28;20022;-76
2023/06/26 08:10:16;;;;;;;7.65;1.83;;;19.70;99.90;;;19.36;88.45;101975.16;4184775;28;20468;-76
2023/06/26 08:12:17;;;;;;;9.77;3.13;;;19.70;99.90;;;19.38;89.20;101970.50;4185743;28;20033;-76
2023/06/26 08:14:18;;;;;;;8.10;2.35;;;19.80;99.90;;;19.50;85.08;101979.75;4185915;28;20028;-76
2023/06/26 08:16:19;;;;;;;9.23;2.10;;;19.90;99.90;;;19.52;83.29;101979.56;4168059;28;20124;-76
2023/06/26 08:18:20;;;;;;;4.85;1.90;;;19.90;99.90;;;19.55;84.98;101973.84;4167872;28;20037;-77
2023/06/26 08:20:22;;;;;;;4.88;1.60;;;20.00;99.90;;;19.76;85.72;101982.78;4168003;28;20033;-76